createdAt,value
2022-08-28T00:01:28.601Z,92.22
2022-08-28T00:03:56.108Z,112.82
2022-08-28T00:06:24.967Z,140.02
2022-08-28T00:08:52.497Z,122.72
2022-08-28T00:11:21.056Z,144.02
2022-08-28T00:13:48.943Z,120.28
2022-08-28T00:16:17.995Z,139.82
2022-08-28T00:18:47.067Z,121.55
2022-08-28T00:21:15.068Z,135.07
2022-08-28T00:23:43.912Z,140.75
2022-08-28T00:26:31.723Z,134.38
2022-08-28T00:28:58.247Z,126.68
2022-08-28T00:31:25.754Z,122.03
2022-08-28T00:33:53.319Z,132.60
2022-08-28T00:36:20.871Z,125.65
2022-08-28T00:38:49.675Z,120.32
2022-08-28T00:41:17.424Z,134.98
2022-08-28T00:43:52.332Z,116.03
2022-08-28T00:46:22.849Z,130.82
2022-08-28T00:48:51.373Z,131.77
2022-08-28T00:51:35.091Z,121.05
2022-08-28T00:54:07.527Z,116.60
2022-08-28T00:56:35.747Z,144.57
2022-08-28T00:59:08.925Z,104.15
2022-08-28T01:01:38.738Z,110.25
2022-08-28T01:04:06.678Z,128.23
2022-08-28T01:06:34.563Z,118.93
2022-08-28T01:09:02.150Z,108.88
2022-08-28T01:11:32.312Z,126.45
2022-08-28T01:14:03.225Z,126.57
2022-08-28T01:16:34.284Z,105.78
2022-08-28T01:19:03.397Z,133.25
2022-08-28T01:21:40.233Z,111.93
2022-08-28T01:24:12.070Z,130.60
2022-08-28T01:26:39.605Z,126.43
2022-08-28T01:29:08.454Z,92.75
2022-08-28T01:31:38.504Z,119.20
2022-08-28T01:34:06.815Z,110.22
2022-08-28T01:36:34.652Z,81.68
2022-08-28T01:39:05.934Z,110.72
2022-08-28T01:41:35.444Z,74.38
2022-08-28T01:44:03.042Z,114.53
2022-08-28T01:46:31.651Z,104.45
2022-08-28T01:48:59.473Z,113.53
2022-08-28T01:51:28.512Z,72.57
2022-08-28T01:54:02.629Z,121.28
2022-08-28T01:56:30.756Z,117.53
2022-08-28T01:58:59.795Z,125.63
2022-08-28T02:01:27.333Z,98.13
2022-08-28T02:03:55.058Z,86.53
2022-08-28T02:06:23.012Z,107.05
2022-08-28T02:08:54.620Z,134.63
2022-08-28T02:11:23.803Z,124.55
2022-08-28T02:13:52.322Z,91.07
2022-08-28T02:16:23.196Z,128.85
2022-08-28T02:18:50.723Z,84.90
2022-08-28T02:21:18.232Z,94.05
2022-08-28T02:23:46.189Z,99.22
2022-08-28T02:26:15.252Z,106.18
2022-08-28T02:28:43.311Z,136.20
2022-08-28T02:31:11.684Z,126.32
2022-08-28T02:33:43.495Z,145.23
2022-08-28T02:36:13.182Z,126.40
2022-08-28T02:38:41.160Z,114.10
2022-08-28T02:41:10.052Z,102.88
2022-08-28T02:43:37.659Z,105.13
2022-08-28T02:46:06.270Z,110.88
2022-08-28T02:48:36.498Z,89.35
2022-08-28T02:51:08.987Z,121.18
2022-08-28T02:53:37.423Z,91.80
2022-08-28T02:56:05.995Z,80.28
2022-08-28T02:58:34.545Z,114.38
2022-08-28T03:01:03.430Z,97.25
2022-08-28T03:03:32.450Z,83.78
2022-08-28T03:06:00.610Z,101.20
2022-08-28T03:08:30.071Z,110.22
2022-08-28T03:10:57.629Z,95.75
2022-08-28T03:13:27.269Z,103.10
2022-08-28T03:15:56.236Z,109.50
2022-08-28T03:18:25.287Z,113.53
2022-08-28T03:20:53.748Z,106.05
2022-08-28T03:23:26.305Z,119.93
2022-08-28T03:25:56.501Z,109.68
2022-08-28T03:28:25.007Z,88.88
2022-08-28T03:30:52.655Z,108.78
2022-08-28T03:33:21.279Z,102.22
2022-08-28T03:35:49.213Z,101.53
2022-08-28T03:38:17.157Z,124.07
2022-08-28T03:40:46.744Z,88.20
2022-08-28T03:43:18.845Z,67.22
2022-08-28T03:45:58.749Z,85.07
2022-08-28T03:48:28.484Z,86.13
2022-08-28T03:50:57.304Z,81.20
2022-08-28T03:53:27.491Z,92.72
2022-08-28T03:55:56.213Z,83.25
2022-08-28T03:58:26.449Z,97.43
2022-08-28T04:00:54.512Z,92.38
2022-08-28T04:03:22.463Z,96.88
2022-08-28T04:05:49.990Z,102.40
2022-08-28T04:08:19.404Z,94.75
2022-08-28T04:10:48.505Z,84.05
2022-08-28T04:13:17.826Z,97.38
2022-08-28T04:15:47.153Z,117.95
2022-08-28T04:18:14.922Z,107.22
2022-08-28T04:20:42.556Z,121.78
2022-08-28T04:23:14.098Z,83.22
2022-08-28T04:25:41.744Z,134.73
2022-08-28T04:28:09.294Z,109.70
2022-08-28T04:30:36.839Z,87.53
2022-08-28T04:33:06.130Z,108.45
2022-08-28T04:35:33.670Z,99.20
2022-08-28T04:38:02.528Z,106.70
2022-08-28T04:40:33.009Z,96.97
2022-08-28T04:43:00.536Z,105.63
2022-08-28T04:45:28.084Z,95.45
2022-08-28T04:47:55.628Z,95.88
2022-08-28T04:50:25.247Z,91.20
2022-08-28T04:52:53.167Z,118.50
2022-08-28T04:55:40.080Z,108.32
2022-08-28T04:58:08.256Z,105.93
2022-08-28T05:00:37.799Z,73.90
2022-08-28T05:03:05.717Z,99.40
2022-08-28T05:05:35.016Z,123.03
2022-08-28T05:08:02.649Z,116.78
2022-08-28T05:10:30.492Z,104.20
2022-08-28T05:12:57.960Z,107.97
2022-08-28T05:15:25.459Z,90.82
2022-08-28T05:17:52.961Z,104.15
2022-08-28T05:20:20.453Z,104.32
2022-08-28T05:22:49.317Z,96.22
2022-08-28T05:25:17.015Z,100.45
2022-08-28T05:27:44.482Z,87.78
2022-08-28T05:30:13.115Z,123.13
2022-08-28T05:32:43.040Z,112.70
2022-08-28T05:35:10.723Z,98.57
2022-08-28T05:37:38.180Z,109.00
2022-08-28T05:40:10.479Z,84.30
2022-08-28T05:42:39.151Z,102.57
2022-08-28T05:45:08.060Z,113.72
2022-08-28T05:47:35.654Z,79.55
2022-08-28T05:50:03.165Z,109.30
2022-08-28T05:52:30.651Z,99.95
2022-08-28T05:54:58.534Z,114.20
2022-08-28T05:57:27.363Z,95.78
2022-08-28T05:59:54.838Z,108.13
2022-08-28T06:02:22.646Z,113.93
2022-08-28T06:04:50.256Z,82.13
2022-08-28T06:07:18.088Z,101.65
2022-08-28T06:09:45.746Z,92.13
2022-08-28T06:12:13.665Z,107.70
2022-08-28T06:14:43.401Z,71.30
2022-08-28T06:17:12.477Z,92.57
2022-08-28T06:19:41.687Z,80.05
2022-08-28T06:22:12.047Z,64.00
2022-08-28T06:24:39.693Z,63.80
2022-08-28T06:27:07.186Z,65.13
2022-08-28T06:29:34.750Z,69.97
2022-08-28T06:32:05.393Z,52.63
2022-08-28T06:34:33.140Z,65.53
2022-08-28T06:37:00.862Z,91.10
2022-08-28T06:39:28.376Z,80.50
2022-08-28T06:41:55.902Z,74.90
2022-08-28T06:44:23.916Z,92.28
2022-08-28T06:46:53.891Z,103.80
2022-08-28T06:49:22.777Z,110.43
2022-08-28T06:51:50.377Z,115.95
2022-08-28T06:54:22.941Z,128.30
2022-08-28T06:56:51.255Z,110.35
2022-08-28T06:59:18.821Z,120.82
2022-08-28T07:01:46.345Z,117.20
2022-08-28T07:04:14.439Z,94.03
2022-08-28T07:06:46.902Z,109.78
2022-08-28T07:09:15.250Z,109.75
2022-08-28T07:11:46.487Z,111.95
2022-08-28T07:14:14.042Z,112.15
2022-08-28T07:16:41.740Z,118.10
2022-08-28T07:19:11.954Z,108.40
2022-08-28T07:21:41.638Z,108.60
2022-08-28T07:24:12.884Z,124.00
2022-08-28T07:26:41.802Z,111.65
2022-08-28T07:29:11.438Z,98.85
2022-08-28T07:31:41.104Z,108.72
2022-08-28T07:34:09.646Z,83.38
2022-08-28T07:36:37.728Z,118.38
2022-08-28T07:39:05.996Z,90.40
2022-08-28T07:41:39.009Z,94.78
2022-08-28T07:44:24.332Z,70.95
2022-08-28T07:46:54.858Z,90.03
2022-08-28T07:49:22.765Z,74.22
2022-08-28T07:51:50.373Z,74.57
2022-08-28T07:54:21.949Z,70.60
2022-08-28T07:56:51.572Z,71.72
2022-08-28T07:59:20.168Z,74.82
2022-08-28T08:01:50.647Z,74.35
2022-08-28T08:04:19.928Z,85.35
2022-08-28T08:06:47.825Z,113.20
2022-08-28T08:09:17.660Z,73.18
2022-08-28T08:11:45.833Z,102.57
2022-08-28T08:14:16.408Z,104.30
2022-08-28T08:16:46.939Z,115.55
2022-08-28T08:19:15.310Z,106.15
2022-08-28T08:21:44.447Z,89.60
2022-08-28T08:24:19.716Z,92.60
2022-08-28T08:26:56.566Z,116.90
2022-08-28T08:29:32.206Z,108.22
2022-08-28T08:32:05.266Z,88.20
2022-08-28T08:34:33.836Z,118.07
2022-08-28T08:37:01.569Z,114.80
2022-08-28T08:39:29.255Z,103.55
2022-08-28T08:42:00.744Z,92.85
2022-08-28T08:44:33.485Z,113.88
2022-08-28T08:47:13.797Z,98.00
2022-08-28T08:49:48.340Z,79.88
2022-08-28T08:52:28.191Z,103.85
2022-08-28T08:55:07.109Z,61.63
2022-08-28T08:57:37.004Z,86.65
2022-08-28T09:00:11.190Z,101.47
2022-08-28T09:02:46.265Z,71.63
2022-08-28T09:05:19.048Z,70.05
2022-08-28T09:07:56.660Z,65.75
2022-08-28T09:10:26.579Z,83.85
2022-08-28T09:12:58.172Z,99.95
2022-08-28T09:15:32.077Z,59.85
2022-08-28T09:18:12.065Z,66.05
2022-08-28T09:20:39.950Z,54.53
2022-08-28T09:23:13.407Z,71.57
2022-08-28T09:25:59.757Z,58.88
2022-08-28T09:28:32.456Z,42.75
2022-08-28T09:31:07.398Z,59.88
2022-08-28T09:33:41.703Z,51.33
2022-08-28T09:36:29.888Z,61.15
2022-08-28T09:39:13.754Z,45.92
2022-08-28T09:42:14.885Z,62.80
2022-08-28T09:44:52.056Z,50.70
2022-08-28T09:47:48.778Z,56.00
2022-08-28T09:50:26.180Z,112.13
2022-08-28T09:52:58.874Z,55.67
2022-08-28T09:55:34.745Z,65.50
2022-08-28T09:58:04.942Z,53.47
2022-08-28T10:00:37.860Z,50.33
2022-08-28T10:03:15.461Z,49.70
2022-08-28T10:05:55.301Z,42.25
2022-08-28T10:08:37.103Z,69.70
2022-08-28T10:11:15.465Z,37.60
2022-08-28T10:14:03.438Z,73.38
2022-08-28T10:16:41.600Z,48.95
2022-08-28T10:19:23.379Z,71.60
2022-08-28T10:22:04.984Z,105.53
2022-08-28T10:24:48.056Z,74.00
2022-08-28T10:27:33.540Z,57.60
2022-08-28T10:30:11.286Z,38.85
2022-08-28T10:32:52.458Z,34.47
2022-08-28T10:35:25.387Z,31.77
2022-08-28T10:38:01.577Z,29.23
2022-08-28T10:40:34.669Z,26.67
2022-08-28T10:43:06.908Z,25.45
2022-08-28T10:45:35.724Z,64.18
2022-08-28T10:48:10.167Z,43.42
2022-08-28T10:50:45.124Z,34.10
2022-08-28T10:53:16.480Z,46.75
2022-08-28T10:55:52.310Z,38.40
2022-08-28T10:58:24.312Z,62.38
2022-08-28T11:00:56.090Z,40.83
2022-08-28T11:03:35.026Z,41.55
2022-08-28T11:06:11.241Z,53.30
2022-08-28T11:08:40.525Z,46.90
2022-08-28T11:11:14.342Z,36.35
2022-08-28T11:13:47.687Z,24.88
2022-08-28T11:16:21.429Z,48.55
2022-08-28T11:19:20.416Z,59.42
2022-08-28T11:21:52.982Z,39.15
2022-08-28T11:24:32.849Z,33.70
2022-08-28T11:27:12.980Z,28.45
2022-08-28T11:30:04.914Z,20.65
2022-08-28T11:32:56.062Z,48.60
2022-08-28T11:35:53.590Z,41.47
2022-08-28T11:39:13.417Z,46.40
2022-08-28T11:42:32.033Z,36.95
2022-08-28T11:44:59.734Z,40.08
2022-08-28T11:47:56.653Z,40.60
2022-08-28T11:50:32.090Z,24.55
2022-08-28T11:53:44.214Z,36.47
2022-08-28T11:56:45.464Z,57.45
2022-08-28T11:59:35.037Z,54.45
2022-08-28T12:02:36.896Z,61.03
2022-08-28T12:05:06.222Z,56.00
2022-08-28T12:07:36.647Z,29.60
2022-08-28T12:10:44.572Z,35.90
2022-08-28T12:13:48.973Z,53.03
2022-08-28T12:16:16.719Z,55.42
2022-08-28T12:19:01.140Z,59.17
2022-08-28T12:21:31.024Z,45.70
2022-08-28T12:24:07.341Z,35.42
2022-08-28T12:26:44.517Z,30.65
2022-08-28T12:29:31.544Z,29.45
2022-08-28T12:32:18.889Z,23.83
2022-08-28T12:34:50.330Z,37.83
2022-08-28T12:37:39.503Z,38.33
2022-08-28T12:40:22.938Z,39.72
2022-08-28T12:42:55.483Z,42.55
2022-08-28T12:45:28.795Z,23.95
2022-08-28T12:48:00.045Z,25.15
2022-08-28T12:50:31.572Z,30.02
2022-08-28T12:53:06.333Z,30.00
2022-08-28T12:55:34.872Z,22.88
2022-08-28T12:58:02.568Z,18.55
2022-08-28T13:00:35.658Z,23.63
2022-08-28T13:03:08.088Z,34.42
2022-08-28T13:05:39.630Z,32.97
2022-08-28T13:08:10.695Z,23.23
2022-08-28T13:10:41.364Z,23.20
2022-08-28T13:13:19.056Z,24.55
2022-08-28T13:15:52.609Z,28.73
2022-08-28T13:18:51.439Z,51.58
2022-08-28T13:21:37.205Z,49.70
2022-08-28T13:24:27.449Z,34.15
2022-08-28T13:27:06.768Z,29.15
2022-08-28T13:29:35.379Z,25.10
2022-08-28T13:32:07.781Z,29.45
2022-08-28T13:34:37.073Z,23.73
2022-08-28T13:37:14.706Z,24.17
2022-08-28T13:39:48.396Z,23.00
2022-08-28T13:42:18.309Z,21.40
2022-08-28T13:44:48.525Z,19.48
2022-08-28T13:47:17.955Z,34.15
2022-08-28T13:49:45.733Z,29.20
2022-08-28T13:52:13.900Z,24.33
2022-08-28T13:54:43.735Z,37.00
2022-08-28T13:57:13.609Z,45.63
2022-08-28T13:59:41.552Z,40.40
2022-08-28T14:02:30.468Z,20.88
2022-08-28T14:04:59.426Z,35.75
2022-08-28T14:07:27.019Z,20.13
2022-08-28T14:09:56.531Z,37.42
2022-08-28T14:12:32.849Z,28.40
2022-08-28T14:15:01.554Z,45.08
2022-08-28T14:17:29.149Z,47.83
2022-08-28T14:19:56.687Z,48.28
2022-08-28T14:22:25.521Z,46.35
2022-08-28T14:24:53.115Z,38.25
2022-08-28T14:27:20.870Z,40.85
2022-08-28T14:29:49.057Z,46.30
2022-08-28T14:32:16.650Z,30.67
2022-08-28T14:34:44.265Z,38.85
2022-08-28T14:37:11.770Z,63.63
2022-08-28T14:39:42.020Z,51.45
2022-08-28T14:42:13.064Z,57.20
2022-08-28T14:44:40.952Z,38.90
2022-08-28T14:47:08.709Z,25.38
2022-08-28T14:49:36.208Z,40.03
2022-08-28T14:52:04.594Z,25.00
2022-08-28T14:54:32.207Z,44.10
2022-08-28T14:57:01.056Z,27.75
2022-08-28T14:59:31.055Z,49.42
2022-08-28T15:02:00.249Z,51.72
2022-08-28T15:04:34.282Z,55.25
2022-08-28T15:07:05.432Z,52.63
2022-08-28T15:09:36.725Z,55.28
2022-08-28T15:12:06.148Z,52.55
2022-08-28T15:14:33.678Z,41.42
2022-08-28T15:17:01.315Z,35.35
2022-08-28T15:19:30.063Z,48.45
2022-08-28T15:21:58.575Z,62.15
2022-08-28T15:24:30.748Z,45.95
2022-08-28T15:26:59.631Z,43.08
2022-08-28T15:29:29.909Z,34.72
2022-08-28T15:31:59.034Z,23.17
2022-08-28T15:34:29.106Z,43.42
2022-08-28T15:36:58.014Z,58.20
2022-08-28T15:39:43.899Z,32.70
2022-08-28T15:42:11.416Z,45.50
2022-08-28T15:44:40.301Z,50.97
2022-08-28T15:47:08.621Z,51.40
2022-08-28T15:49:43.692Z,49.17
2022-08-28T15:52:18.192Z,47.78
2022-08-28T15:54:45.745Z,42.97
2022-08-28T15:57:13.400Z,52.50
2022-08-28T15:59:49.422Z,40.55
2022-08-28T16:02:18.832Z,43.75
2022-08-28T16:04:46.503Z,38.50
2022-08-28T16:07:14.001Z,55.40
2022-08-28T16:09:41.504Z,65.35
2022-08-28T16:12:12.495Z,53.58
2022-08-28T16:14:40.210Z,43.78
2022-08-28T16:17:11.169Z,52.40
2022-08-28T16:19:57.721Z,54.35
2022-08-28T16:22:25.258Z,40.88
2022-08-28T16:24:52.774Z,43.03
2022-08-28T16:27:20.599Z,55.85
2022-08-28T16:29:52.812Z,51.85
2022-08-28T16:32:22.925Z,49.97
2022-08-28T16:34:50.613Z,59.80
2022-08-28T16:37:19.597Z,56.50
2022-08-28T16:39:48.643Z,43.63
2022-08-28T16:42:17.239Z,57.80
2022-08-28T16:44:44.736Z,41.72
2022-08-28T16:47:12.306Z,36.75
2022-08-28T16:49:41.199Z,29.63
2022-08-28T16:52:08.763Z,53.65
2022-08-28T16:54:36.240Z,25.25
2022-08-28T16:57:03.745Z,47.53
2022-08-28T16:59:31.232Z,62.28
2022-08-28T17:01:58.802Z,57.50
2022-08-28T17:04:26.466Z,37.17
2022-08-28T17:06:56.361Z,30.92
2022-08-28T17:09:24.865Z,32.60
2022-08-28T17:11:52.535Z,34.97
2022-08-28T17:14:20.655Z,45.13
2022-08-28T17:16:48.702Z,68.50
2022-08-28T17:19:16.339Z,46.80
2022-08-28T17:22:01.879Z,55.13
2022-08-28T17:24:30.975Z,43.53
2022-08-28T17:27:00.925Z,48.47
2022-08-28T17:29:32.201Z,47.35
2022-08-28T17:31:59.729Z,32.75
2022-08-28T17:34:30.291Z,34.58
2022-08-28T17:36:58.141Z,41.88
2022-08-28T17:39:25.807Z,35.25
2022-08-28T17:41:54.724Z,35.17
2022-08-28T17:44:22.232Z,37.20
2022-08-28T17:46:51.709Z,43.47
2022-08-28T17:49:19.301Z,43.72
2022-08-28T17:51:46.864Z,49.15
2022-08-28T17:54:16.704Z,57.70
2022-08-28T17:56:44.876Z,55.40
2022-08-28T17:59:14.485Z,56.88
2022-08-28T18:01:43.262Z,54.80
2022-08-28T18:04:11.437Z,51.47
2022-08-28T18:06:39.364Z,57.30
2022-08-28T18:09:07.721Z,55.20
2022-08-28T18:11:35.448Z,57.13
2022-08-28T18:14:03.228Z,61.28
2022-08-28T18:16:34.323Z,71.93
2022-08-28T18:19:02.593Z,92.03
2022-08-28T18:21:30.380Z,89.40
2022-08-28T18:23:58.558Z,107.97
2022-08-28T18:26:26.389Z,98.78
2022-08-28T18:28:54.204Z,101.78
2022-08-28T18:31:21.786Z,97.55
2022-08-28T18:33:50.901Z,99.88
2022-08-28T18:36:18.826Z,103.10
2022-08-28T18:38:47.123Z,99.93
2022-08-28T18:41:14.665Z,103.40
2022-08-28T18:43:42.419Z,108.28
2022-08-28T18:46:10.441Z,112.28
2022-08-28T18:48:38.753Z,98.13
2022-08-28T18:51:08.594Z,93.32
2022-08-28T18:53:36.492Z,76.78
2022-08-28T18:56:05.383Z,69.60
2022-08-28T18:58:33.043Z,58.95
2022-08-28T19:01:02.114Z,69.68
2022-08-28T19:03:29.744Z,66.38
2022-08-28T19:05:57.493Z,58.85
2022-08-28T19:08:27.281Z,52.88
2022-08-28T19:10:55.058Z,47.05
2022-08-28T19:13:23.247Z,43.15
2022-08-28T19:15:52.443Z,46.85
2022-08-28T19:18:20.291Z,49.80
2022-08-28T19:20:48.049Z,56.63
2022-08-28T19:23:17.831Z,42.53
2022-08-28T19:25:48.378Z,42.45
2022-08-28T19:28:16.022Z,53.67
2022-08-28T19:30:43.674Z,44.08
2022-08-28T19:33:12.546Z,37.50
2022-08-28T19:35:40.061Z,51.63
2022-08-28T19:38:07.611Z,78.82
2022-08-28T19:40:35.524Z,62.03
2022-08-28T19:43:05.451Z,71.05
2022-08-28T19:45:34.037Z,65.88
2022-08-28T19:48:01.735Z,91.80
2022-08-28T19:50:29.278Z,121.97
2022-08-28T19:52:56.808Z,105.15
2022-08-28T19:55:28.771Z,87.63
2022-08-28T19:57:56.634Z,101.28
2022-08-28T20:00:29.160Z,108.28
2022-08-28T20:02:57.723Z,105.15
2022-08-28T20:05:25.946Z,105.75
2022-08-28T20:07:53.439Z,88.15
2022-08-28T20:10:21.361Z,109.22
2022-08-28T20:12:49.012Z,86.30
2022-08-28T20:15:18.611Z,105.78
2022-08-28T20:17:49.967Z,83.35
2022-08-28T20:20:19.337Z,101.55
2022-08-28T20:22:47.368Z,102.57
2022-08-28T20:25:15.628Z,118.07
2022-08-28T20:27:43.187Z,108.68
2022-08-28T20:30:12.210Z,98.75
2022-08-28T20:32:41.260Z,99.05
2022-08-28T20:35:12.855Z,102.40
2022-08-28T20:37:44.772Z,100.88
2022-08-28T20:40:15.852Z,108.32
2022-08-28T20:42:43.786Z,76.35
2022-08-28T20:45:12.585Z,88.80
2022-08-28T20:47:40.152Z,110.50
2022-08-28T20:50:08.674Z,55.03
2022-08-28T20:52:37.642Z,46.35
2022-08-28T20:55:07.516Z,56.75
2022-08-28T20:57:35.117Z,77.20
2022-08-28T21:00:05.638Z,41.78
2022-08-28T21:02:33.539Z,95.80
2022-08-28T21:05:01.605Z,69.53
2022-08-28T21:07:29.271Z,96.10
2022-08-28T21:10:05.761Z,98.60
2022-08-28T21:12:35.632Z,80.15
2022-08-28T21:15:03.507Z,93.60
2022-08-28T21:17:31.175Z,98.25
2022-08-28T21:20:01.036Z,71.68
2022-08-28T21:22:30.100Z,89.30
2022-08-28T21:24:59.468Z,78.00
2022-08-28T21:27:27.003Z,103.47
2022-08-28T21:29:56.075Z,98.38
2022-08-28T21:32:23.588Z,122.82
2022-08-28T21:34:51.258Z,103.75
2022-08-28T21:37:18.764Z,114.78
2022-08-28T21:39:46.273Z,105.97
2022-08-28T21:42:15.191Z,125.47
2022-08-28T21:44:51.647Z,99.82
2022-08-28T21:47:21.241Z,102.15
2022-08-28T21:49:49.329Z,122.00
2022-08-28T21:52:16.864Z,112.05
2022-08-28T21:54:44.398Z,123.53
2022-08-28T21:57:12.210Z,124.68
2022-08-28T21:59:41.394Z,137.73
2022-08-28T22:02:08.950Z,137.95
2022-08-28T22:04:36.916Z,125.70
2022-08-28T22:07:04.474Z,135.75
2022-08-28T22:09:31.997Z,105.38
2022-08-28T22:11:59.562Z,148.93
2022-08-28T22:14:28.458Z,159.68
2022-08-28T22:16:57.573Z,146.27
2022-08-28T22:19:25.106Z,128.07
2022-08-28T22:22:10.156Z,92.57
2022-08-28T22:24:37.952Z,137.73
2022-08-28T22:27:06.106Z,105.00
2022-08-28T22:29:36.486Z,102.50
2022-08-28T22:32:06.719Z,94.25
2022-08-28T22:34:38.626Z,108.95
2022-08-28T22:37:06.299Z,106.15
2022-08-28T22:39:33.890Z,116.72
2022-08-28T22:42:01.801Z,111.03
2022-08-28T22:44:29.532Z,100.00
2022-08-28T22:46:57.128Z,101.20
2022-08-28T22:49:26.104Z,107.00
2022-08-28T22:51:53.706Z,113.93
2022-08-28T22:54:21.431Z,108.80
2022-08-28T22:56:48.965Z,117.90
2022-08-28T22:59:16.624Z,99.10
2022-08-28T23:01:44.175Z,106.15
2022-08-28T23:04:12.194Z,103.22
2022-08-28T23:06:41.080Z,110.95
2022-08-28T23:09:09.452Z,104.30
2022-08-28T23:11:37.972Z,101.20
2022-08-28T23:14:06.418Z,88.43
2022-08-28T23:16:35.370Z,126.15
2022-08-28T23:19:13.376Z,95.22
2022-08-28T23:21:44.254Z,94.78
2022-08-28T23:24:12.527Z,102.40
2022-08-28T23:26:40.208Z,120.38
2022-08-28T23:29:07.739Z,113.22
2022-08-28T23:31:35.709Z,104.95
2022-08-28T23:34:03.313Z,94.20
2022-08-28T23:36:32.750Z,103.22
2022-08-28T23:39:04.913Z,98.35
2022-08-28T23:41:33.095Z,92.93
2022-08-28T23:44:03.199Z,92.40
2022-08-28T23:46:33.557Z,114.65
2022-08-28T23:49:01.154Z,113.05
2022-08-28T23:51:29.516Z,93.38
2022-08-28T23:53:57.051Z,105.75
2022-08-28T23:56:28.235Z,114.18
2022-08-28T23:58:55.927Z,92.85
